sensor_id;sensor_type;location;lat;lon;timestamp;pressure;altitude;pressure_sealevel;temperature;humidity
75668;BME280;64266;48.798;44.756;2023-04-24T00:03:18;101856.47;;;11.10;67.79
75668;BME280;64266;48.798;44.756;2023-04-24T00:08:25;101850.03;;;11.25;67.82
75668;BME280;64266;48.798;44.756;2023-04-24T00:13:28;101849.09;;;11.39;66.55
75668;BME280;64266;48.798;44.756;2023-04-24T00:18:31;101835.19;;;11.37;66.25
75668;BME280;64266;48.798;44.756;2023-04-24T00:23:35;101845.00;;;11.37;65.55
75668;BME280;64266;48.798;44.756;2023-04-24T00:28:38;101849.31;;;11.10;65.98
75668;BME280;64266;48.798;44.756;2023-04-24T00:33:41;101859.56;;;11.20;67.09
75668;BME280;64266;48.798;44.756;2023-04-24T00:38:45;101859.94;;;11.10;68.59
75668;BME280;64266;48.798;44.756;2023-04-24T00:43:47;101850.59;;;10.93;67.83
75668;BME280;64266;48.798;44.756;2023-04-24T00:48:51;101852.38;;;10.86;67.83
75668;BME280;64266;48.798;44.756;2023-04-24T00:53:54;101872.22;;;10.90;67.31
75668;BME280;64266;48.798;44.756;2023-04-24T00:58:57;101864.22;;;10.83;67.79
75668;BME280;64266;48.798;44.756;2023-04-24T01:04:01;101859.09;;;10.82;68.04
75668;BME280;64266;48.798;44.756;2023-04-24T01:09:06;101823.44;;;10.63;66.72
75668;BME280;64266;48.798;44.756;2023-04-24T01:14:12;101852.25;;;10.66;66.52
75668;BME280;64266;48.798;44.756;2023-04-24T01:19:16;101851.94;;;10.55;66.59
75668;BME280;64266;48.798;44.756;2023-04-24T01:24:21;101853.50;;;10.49;66.89
75668;BME280;64266;48.798;44.756;2023-04-24T01:29:24;101864.69;;;10.45;66.66
75668;BME280;64266;48.798;44.756;2023-04-24T01:34:26;101853.63;;;10.41;66.72
75668;BME280;64266;48.798;44.756;2023-04-24T01:39:29;101863.03;;;10.22;65.16
75668;BME280;64266;48.798;44.756;2023-04-24T01:44:33;101880.75;;;10.22;67.38
75668;BME280;64266;48.798;44.756;2023-04-24T01:49:38;101851.72;;;10.14;67.26
75668;BME280;64266;48.798;44.756;2023-04-24T01:54:42;101870.22;;;10.28;68.03
75668;BME280;64266;48.798;44.756;2023-04-24T01:59:44;101875.66;;;10.42;67.62
75668;BME280;64266;48.798;44.756;2023-04-24T02:04:50;101897.13;;;10.47;66.13
75668;BME280;64266;48.798;44.756;2023-04-24T02:09:52;101885.50;;;10.26;67.66
75668;BME280;64266;48.798;44.756;2023-04-24T02:14:55;101880.06;;;10.34;67.39
75668;BME280;64266;48.798;44.756;2023-04-24T02:19:59;101872.13;;;10.34;67.98
75668;BME280;64266;48.798;44.756;2023-04-24T02:25:02;101871.28;;;10.55;67.40
75668;BME280;64266;48.798;44.756;2023-04-24T02:30:09;101878.25;;;10.77;66.61
75668;BME280;64266;48.798;44.756;2023-04-24T02:35:11;101876.47;;;10.84;66.84
75668;BME280;64266;48.798;44.756;2023-04-24T02:40:14;101886.50;;;11.10;66.35
75668;BME280;64266;48.798;44.756;2023-04-24T02:45:18;101883.63;;;11.12;66.34
75668;BME280;64266;48.798;44.756;2023-04-24T02:50:21;101857.41;;;11.02;67.56
75668;BME280;64266;48.798;44.756;2023-04-24T02:55:24;101899.78;;;11.44;67.97
75668;BME280;64266;48.798;44.756;2023-04-24T03:00:27;101886.94;;;11.48;67.83
75668;BME280;64266;48.798;44.756;2023-04-24T03:05:31;101900.25;;;11.55;67.42
75668;BME280;64266;48.798;44.756;2023-04-24T03:10:34;101912.72;;;11.54;67.35
75668;BME280;64266;48.798;44.756;2023-04-24T03:15:36;101852.38;;;11.14;67.08
75668;BME280;64266;48.798;44.756;2023-04-24T03:20:40;101917.88;;;11.62;67.99
75668;BME280;64266;48.798;44.756;2023-04-24T03:25:43;101914.63;;;11.67;67.08
75668;BME280;64266;48.798;44.756;2023-04-24T03:30:48;101921.53;;;11.89;66.91
75668;BME280;64266;48.798;44.756;2023-04-24T03:35:52;101917.69;;;11.98;67.02
75668;BME280;64266;48.798;44.756;2023-04-24T03:40:56;101907.88;;;11.99;67.52
75668;BME280;64266;48.798;44.756;2023-04-24T03:46:14;101934.75;;;12.17;67.08
75668;BME280;64266;48.798;44.756;2023-04-24T03:51:25;101930.81;;;12.13;67.04
75668;BME280;64266;48.798;44.756;2023-04-24T03:56:36;101939.69;;;12.26;67.87
75668;BME280;64266;48.798;44.756;2023-04-24T04:01:39;101945.91;;;12.53;66.25
75668;BME280;64266;48.798;44.756;2023-04-24T04:06:48;101907.63;;;12.54;65.55
75668;BME280;64266;48.798;44.756;2023-04-24T04:11:51;101931.22;;;13.03;63.71
75668;BME280;64266;48.798;44.756;2023-04-24T04:16:55;101939.03;;;13.18;63.45
75668;BME280;64266;48.798;44.756;2023-04-24T04:21:58;101958.09;;;13.21;64.09
75668;BME280;64266;48.798;44.756;2023-04-24T04:27:11;101969.78;;;13.46;64.33
75668;BME280;64266;48.798;44.756;2023-04-24T04:32:32;101951.72;;;13.42;64.28
75668;BME280;64266;48.798;44.756;2023-04-24T04:37:36;101927.97;;;13.40;63.92
75668;BME280;64266;48.798;44.756;2023-04-24T04:42:57;101923.84;;;13.44;63.60
75668;BME280;64266;48.798;44.756;2023-04-24T04:48:04;101938.38;;;13.75;63.03
75668;BME280;64266;48.798;44.756;2023-04-24T04:53:10;101970.84;;;14.09;62.97
75668;BME280;64266;48.798;44.756;2023-04-24T04:58:13;101952.97;;;14.23;61.34
75668;BME280;64266;48.798;44.756;2023-04-24T05:03:18;101951.19;;;14.55;60.50
75668;BME280;64266;48.798;44.756;2023-04-24T05:08:30;101952.84;;;14.87;60.29
75668;BME280;64266;48.798;44.756;2023-04-24T05:13:34;101957.81;;;15.33;58.69
75668;BME280;64266;48.798;44.756;2023-04-24T05:18:56;101951.81;;;15.81;57.47
75668;BME280;64266;48.798;44.756;2023-04-24T05:24:06;101956.09;;;16.54;56.92
75668;BME280;64266;48.798;44.756;2023-04-24T05:29:36;101939.13;;;17.25;54.12
75668;BME280;64266;48.798;44.756;2023-04-24T05:34:43;101960.13;;;17.74;53.36
75668;BME280;64266;48.798;44.756;2023-04-24T05:39:59;101940.75;;;19.14;50.68
75668;BME280;64266;48.798;44.756;2023-04-24T05:45:05;101929.50;;;20.37;46.72
75668;BME280;64266;48.798;44.756;2023-04-24T05:50:23;101974.13;;;20.49;47.14
75668;BME280;64266;48.798;44.756;2023-04-24T05:55:26;101906.78;;;20.86;44.40
75668;BME280;64266;48.798;44.756;2023-04-24T06:00:29;101887.97;;;21.80;42.14
75668;BME280;64266;48.798;44.756;2023-04-24T06:05:38;101940.41;;;23.17;39.95
75668;BME280;64266;48.798;44.756;2023-04-24T06:10:42;101937.44;;;23.03;38.91
75668;BME280;64266;48.798;44.756;2023-04-24T06:15:48;101919.03;;;23.15;39.17
75668;BME280;64266;48.798;44.756;2023-04-24T06:20:56;101913.63;;;22.75;39.95
75668;BME280;64266;48.798;44.756;2023-04-24T06:25:59;101955.56;;;22.93;39.60
75668;BME280;64266;48.798;44.756;2023-04-24T06:31:02;101896.88;;;22.73;40.74
75668;BME280;64266;48.798;44.756;2023-04-24T06:36:08;101910.56;;;23.57;35.25
75668;BME280;64266;48.798;44.756;2023-04-24T06:41:14;101916.47;;;24.34;34.12
75668;BME280;64266;48.798;44.756;2023-04-24T06:46:17;101879.06;;;24.31;32.98
75668;BME280;64266;48.798;44.756;2023-04-24T06:51:23;101897.44;;;23.90;31.11
75668;BME280;64266;48.798;44.756;2023-04-24T06:56:26;101934.09;;;23.67;32.81
75668;BME280;64266;48.798;44.756;2023-04-24T07:01:29;101946.31;;;23.54;32.10
75668;BME280;64266;48.798;44.756;2023-04-24T07:06:33;101930.41;;;23.12;32.83
75668;BME280;64266;48.798;44.756;2023-04-24T07:11:36;101938.53;;;22.72;33.87
75668;BME280;64266;48.798;44.756;2023-04-24T07:16:40;101946.66;;;22.97;34.10
75668;BME280;64266;48.798;44.756;2023-04-24T07:21:46;101936.38;;;23.09;33.70
75668;BME280;64266;48.798;44.756;2023-04-24T07:26:51;101943.66;;;22.99;33.83
75668;BME280;64266;48.798;44.756;2023-04-24T07:31:54;101957.72;;;22.81;33.34
75668;BME280;64266;48.798;44.756;2023-04-24T07:36:57;101927.00;;;22.09;33.90
75668;BME280;64266;48.798;44.756;2023-04-24T07:42:00;101965.34;;;21.96;34.06
75668;BME280;64266;48.798;44.756;2023-04-24T07:47:05;101951.59;;;21.56;34.78
75668;BME280;64266;48.798;44.756;2023-04-24T07:52:08;101904.22;;;21.01;35.67
75668;BME280;64266;48.798;44.756;2023-04-24T07:57:11;101928.47;;;20.96;36.17
75668;BME280;64266;48.798;44.756;2023-04-24T08:02:15;101960.31;;;20.99;35.75
75668;BME280;64266;48.798;44.756;2023-04-24T08:07:18;101895.41;;;20.47;36.50
75668;BME280;64266;48.798;44.756;2023-04-24T08:12:21;101944.72;;;20.75;37.18
75668;BME280;64266;48.798;44.756;2023-04-24T08:17:23;101914.94;;;20.33;38.29
75668;BME280;64266;48.798;44.756;2023-04-24T08:22:28;101944.97;;;20.25;38.63
75668;BME280;64266;48.798;44.756;2023-04-24T08:27:30;101816.75;;;19.48;40.51
75668;BME280;64266;48.798;44.756;2023-04-24T08:32:34;101916.00;;;20.10;40.25
75668;BME280;64266;48.798;44.756;2023-04-24T08:37:37;101785.25;;;19.49;40.56
75668;BME280;64266;48.798;44.756;2023-04-24T08:43:05;101777.00;;;19.56;38.24
75668;BME280;64266;48.798;44.756;2023-04-24T08:48:09;101815.88;;;20.18;37.28
75668;BME280;64266;48.798;44.756;2023-04-24T08:53:30;101880.41;;;20.88;36.88
75668;BME280;64266;48.798;44.756;2023-04-24T08:58:35;101871.91;;;21.06;36.56
75668;BME280;64266;48.798;44.756;2023-04-24T09:03:40;101888.34;;;21.05;35.54
75668;BME280;64266;48.798;44.756;2023-04-24T09:08:45;101841.03;;;20.87;35.30
75668;BME280;64266;48.798;44.756;2023-04-24T09:13:49;101814.13;;;20.61;36.14
75668;BME280;64266;48.798;44.756;2023-04-24T09:18:53;101853.56;;;20.72;36.61
75668;BME280;64266;48.798;44.756;2023-04-24T09:24:07;101874.84;;;20.68;36.23
75668;BME280;64266;48.798;44.756;2023-04-24T09:29:15;101874.59;;;20.70;36.34
75668;BME280;64266;48.798;44.756;2023-04-24T09:34:22;101860.28;;;20.69;37.12
75668;BME280;64266;48.798;44.756;2023-04-24T09:39:27;101794.94;;;20.25;37.08
75668;BME280;64266;48.798;44.756;2023-04-24T09:44:37;101773.19;;;19.78;37.60
75668;BME280;64266;48.798;44.756;2023-04-24T09:49:40;101793.94;;;19.78;38.53
75668;BME280;64266;48.798;44.756;2023-04-24T09:54:52;101840.63;;;20.15;38.88
75668;BME280;64266;48.798;44.756;2023-04-24T09:59:57;101851.88;;;20.07;39.66
75668;BME280;64266;48.798;44.756;2023-04-24T10:05:00;101817.59;;;19.54;39.27
75668;BME280;64266;48.798;44.756;2023-04-24T10:10:06;101835.66;;;19.37;40.89
75668;BME280;64266;48.798;44.756;2023-04-24T10:15:10;101820.56;;;19.14;41.90
75668;BME280;64266;48.798;44.756;2023-04-24T10:20:25;101852.59;;;19.16;41.84
75668;BME280;64266;48.798;44.756;2023-04-24T10:25:30;101845.50;;;19.10;41.82
75668;BME280;64266;48.798;44.756;2023-04-24T10:30:36;101825.16;;;18.80;40.65
75668;BME280;64266;48.798;44.756;2023-04-24T10:35:42;101827.53;;;18.77;41.06
75668;BME280;64266;48.798;44.756;2023-04-24T10:40:47;101797.50;;;18.63;42.50
75668;BME280;64266;48.798;44.756;2023-04-24T10:46:01;101813.59;;;18.80;43.37
75668;BME280;64266;48.798;44.756;2023-04-24T10:51:05;101781.13;;;18.65;43.41
75668;BME280;64266;48.798;44.756;2023-04-24T10:56:15;101779.41;;;18.75;43.77
75668;BME280;64266;48.798;44.756;2023-04-24T11:01:32;101776.44;;;18.93;41.82
75668;BME280;64266;48.798;44.756;2023-04-24T11:06:36;101785.94;;;19.01;41.78
75668;BME280;64266;48.798;44.756;2023-04-24T11:11:45;101783.38;;;18.89;43.20
75668;BME280;64266;48.798;44.756;2023-04-24T11:16:54;101728.69;;;18.46;45.85
75668;BME280;64266;48.798;44.756;2023-04-24T11:22:02;101758.22;;;18.29;47.41
75668;BME280;64266;48.798;44.756;2023-04-24T11:27:17;101764.72;;;18.16;46.50
75668;BME280;64266;48.798;44.756;2023-04-24T11:32:33;101750.91;;;18.08;45.05
75668;BME280;64266;48.798;44.756;2023-04-24T11:37:40;101755.63;;;18.34;44.27
75668;BME280;64266;48.798;44.756;2023-04-24T11:42:46;101725.69;;;18.42;43.95
75668;BME280;64266;48.798;44.756;2023-04-24T11:47:50;101727.63;;;18.63;43.71
75668;BME280;64266;48.798;44.756;2023-04-24T11:52:55;101700.94;;;18.57;44.48
75668;BME280;64266;48.798;44.756;2023-04-24T11:57:59;101719.84;;;18.83;43.80
75668;BME280;64266;48.798;44.756;2023-04-24T12:03:10;101727.50;;;18.91;44.16
75668;BME280;64266;48.798;44.756;2023-04-24T12:08:28;101689.53;;;18.66;48.83
75668;BME280;64266;48.798;44.756;2023-04-24T12:13:33;101689.88;;;18.53;49.96
75668;BME280;64266;48.798;44.756;2023-04-24T12:18:43;101694.44;;;18.36;51.92
75668;BME280;64266;48.798;44.756;2023-04-24T12:23:48;101709.25;;;18.38;52.01
75668;BME280;64266;48.798;44.756;2023-04-24T12:28:51;101672.47;;;18.22;51.74
75668;BME280;64266;48.798;44.756;2023-04-24T12:33:54;101690.59;;;18.32;49.15
75668;BME280;64266;48.798;44.756;2023-04-24T12:38:57;101689.56;;;18.16;48.14
75668;BME280;64266;48.798;44.756;2023-04-24T12:44:01;101685.66;;;18.07;48.38
75668;BME280;64266;48.798;44.756;2023-04-24T12:49:04;101694.34;;;17.81;48.34
75668;BME280;64266;48.798;44.756;2023-04-24T12:54:07;101689.84;;;17.70;48.10
75668;BME280;64266;48.798;44.756;2023-04-24T12:59:11;101663.75;;;17.54;48.55
75668;BME280;64266;48.798;44.756;2023-04-24T13:04:14;101636.44;;;17.12;49.93
75668;BME280;64266;48.798;44.756;2023-04-24T13:09:17;101668.81;;;17.22;50.99
75668;BME280;64266;48.798;44.756;2023-04-24T13:14:22;101682.22;;;17.10;51.37
75668;BME280;64266;48.798;44.756;2023-04-24T13:19:27;101666.31;;;16.92;52.68
75668;BME280;64266;48.798;44.756;2023-04-24T13:24:30;101669.16;;;16.86;54.30
75668;BME280;64266;48.798;44.756;2023-04-24T13:29:34;101679.69;;;16.64;54.62
75668;BME280;64266;48.798;44.756;2023-04-24T13:34:37;101674.53;;;16.39;56.65
75668;BME280;64266;48.798;44.756;2023-04-24T13:39:40;101671.47;;;16.12;58.60
75668;BME280;64266;48.798;44.756;2023-04-24T13:44:43;101657.06;;;16.02;58.77
75668;BME280;64266;48.798;44.756;2023-04-24T13:49:46;101652.28;;;16.04;59.11
75668;BME280;64266;48.798;44.756;2023-04-24T13:54:54;101624.22;;;15.83;58.24
75668;BME280;64266;48.798;44.756;2023-04-24T13:59:58;101626.56;;;15.91;57.85
75668;BME280;64266;48.798;44.756;2023-04-24T14:05:08;101630.75;;;15.87;57.74
75668;BME280;64266;48.798;44.756;2023-04-24T14:10:13;101575.94;;;15.55;57.70
75668;BME280;64266;48.798;44.756;2023-04-24T14:15:16;101602.81;;;15.83;56.86
75668;BME280;64266;48.798;44.756;2023-04-24T14:20:19;101617.84;;;15.96;56.62
75668;BME280;64266;48.798;44.756;2023-04-24T14:25:21;101598.75;;;15.81;55.61
75668;BME280;64266;48.798;44.756;2023-04-24T14:30:24;101612.97;;;15.93;55.63
75668;BME280;64266;48.798;44.756;2023-04-24T14:35:27;101600.63;;;15.92;55.92
75668;BME280;64266;48.798;44.756;2023-04-24T14:40:32;101577.47;;;15.86;55.68
75668;BME280;64266;48.798;44.756;2023-04-24T14:45:38;101584.09;;;15.95;55.81
75668;BME280;64266;48.798;44.756;2023-04-24T14:50:42;101567.34;;;15.88;54.60
75668;BME280;64266;48.798;44.756;2023-04-24T14:55:45;101565.50;;;15.88;54.41
75668;BME280;64266;48.798;44.756;2023-04-24T15:00:48;101595.38;;;15.97;54.98
75668;BME280;64266;48.798;44.756;2023-04-24T15:05:54;101599.47;;;15.99;54.15
75668;BME280;64266;48.798;44.756;2023-04-24T15:10:57;101581.44;;;15.95;54.44
75668;BME280;64266;48.798;44.756;2023-04-24T15:15:59;101531.75;;;15.64;53.88
75668;BME280;64266;48.798;44.756;2023-04-24T15:21:02;101596.44;;;15.96;53.58
75668;BME280;64266;48.798;44.756;2023-04-24T15:26:04;101589.47;;;15.95;54.23
75668;BME280;64266;48.798;44.756;2023-04-24T15:31:07;101587.81;;;15.94;54.81
75668;BME280;64266;48.798;44.756;2023-04-24T15:36:09;101543.38;;;15.69;55.21
75668;BME280;64266;48.798;44.756;2023-04-24T15:41:12;101572.13;;;15.86;56.22
75668;BME280;64266;48.798;44.756;2023-04-24T15:46:15;101595.84;;;15.82;57.52
75668;BME280;64266;48.798;44.756;2023-04-24T15:51:17;101591.88;;;15.73;58.73
75668;BME280;64266;48.798;44.756;2023-04-24T15:56:20;101559.38;;;15.46;59.59
75668;BME280;64266;48.798;44.756;2023-04-24T16:01:23;101580.81;;;15.58;59.99
75668;BME280;64266;48.798;44.756;2023-04-24T16:06:27;101569.19;;;15.52;60.23
75668;BME280;64266;48.798;44.756;2023-04-24T16:11:30;101542.50;;;15.34;60.47
75668;BME280;64266;48.798;44.756;2023-04-24T16:16:33;101540.66;;;15.35;61.04
75668;BME280;64266;48.798;44.756;2023-04-24T16:21:36;101548.78;;;15.28;62.10
75668;BME280;64266;48.798;44.756;2023-04-24T16:26:39;101551.63;;;15.15;63.28
75668;BME280;64266;48.798;44.756;2023-04-24T16:31:41;101561.13;;;15.11;63.67
75668;BME280;64266;48.798;44.756;2023-04-24T16:36:44;101560.06;;;15.00;64.35
75668;BME280;64266;48.798;44.756;2023-04-24T16:41:47;101536.00;;;14.89;65.48
75668;BME280;64266;48.798;44.756;2023-04-24T16:46:51;101527.09;;;14.77;65.44
75668;BME280;64266;48.798;44.756;2023-04-24T16:51:53;101514.50;;;14.65;66.50
75668;BME280;64266;48.798;44.756;2023-04-24T16:56:56;101513.84;;;14.52;66.90
75668;BME280;64266;48.798;44.756;2023-04-24T17:02:00;101521.72;;;14.47;68.10
75668;BME280;64266;48.798;44.756;2023-04-24T17:07:02;101529.53;;;14.48;68.82
75668;BME280;64266;48.798;44.756;2023-04-24T17:12:05;101489.47;;;14.12;69.96
75668;BME280;64266;48.798;44.756;2023-04-24T17:17:09;101519.56;;;14.19;71.18
75668;BME280;64266;48.798;44.756;2023-04-24T17:22:12;101532.75;;;14.14;72.67
75668;BME280;64266;48.798;44.756;2023-04-24T17:27:14;101494.25;;;13.67;75.41
75668;BME280;64266;48.798;44.756;2023-04-24T17:32:17;101491.41;;;13.44;78.16
75668;BME280;64266;48.798;44.756;2023-04-24T17:37:20;101454.88;;;12.95;80.26
75668;BME280;64266;48.798;44.756;2023-04-24T17:42:24;101469.88;;;12.83;83.27
75668;BME280;64266;48.798;44.756;2023-04-24T17:47:26;101494.41;;;12.91;84.30
75668;BME280;64266;48.798;44.756;2023-04-24T17:52:31;101464.44;;;12.71;85.34
75668;BME280;64266;48.798;44.756;2023-04-24T17:57:35;101468.34;;;12.69;86.16
75668;BME280;64266;48.798;44.756;2023-04-24T18:02:38;101459.53;;;12.68;85.73
75668;BME280;64266;48.798;44.756;2023-04-24T18:07:40;101469.75;;;12.71;86.36
75668;BME280;64266;48.798;44.756;2023-04-24T18:12:42;101388.38;;;12.19;86.69
75668;BME280;64266;48.798;44.756;2023-04-24T18:17:45;101463.84;;;12.69;87.11
75668;BME280;64266;48.798;44.756;2023-04-24T18:22:48;101476.03;;;12.83;86.95
75668;BME280;64266;48.798;44.756;2023-04-24T18:27:51;101435.34;;;12.76;87.42
75668;BME280;64266;48.798;44.756;2023-04-24T18:32:55;101434.53;;;12.76;87.33
75668;BME280;64266;48.798;44.756;2023-04-24T18:37:58;101429.00;;;12.71;87.00
75668;BME280;64266;48.798;44.756;2023-04-24T18:43:00;101428.81;;;12.72;87.25
75668;BME280;64266;48.798;44.756;2023-04-24T18:48:03;101394.28;;;12.59;87.95
75668;BME280;64266;48.798;44.756;2023-04-24T18:53:09;101390.22;;;12.57;87.12
75668;BME280;64266;48.798;44.756;2023-04-24T18:58:14;101426.69;;;12.81;87.20
75668;BME280;64266;48.798;44.756;2023-04-24T19:03:16;101402.16;;;12.79;87.54
75668;BME280;64266;48.798;44.756;2023-04-24T19:08:19;101379.66;;;12.75;87.87
75668;BME280;64266;48.798;44.756;2023-04-24T19:13:21;101377.34;;;12.85;87.70
75668;BME280;64266;48.798;44.756;2023-04-24T19:18:24;101356.72;;;12.74;87.69
75668;BME280;64266;48.798;44.756;2023-04-24T19:23:28;101345.44;;;12.78;87.52
75668;BME280;64266;48.798;44.756;2023-04-24T19:28:31;101367.44;;;12.92;87.12
75668;BME280;64266;48.798;44.756;2023-04-24T19:33:37;101344.94;;;12.88;87.20
75668;BME280;64266;48.798;44.756;2023-04-24T19:38:40;101313.41;;;12.91;86.82
75668;BME280;64266;48.798;44.756;2023-04-24T19:43:43;101234.66;;;12.59;86.55
75668;BME280;64266;48.798;44.756;2023-04-24T19:48:46;101295.84;;;13.09;86.63
75668;BME280;64266;48.798;44.756;2023-04-24T19:53:49;101307.34;;;13.02;86.09
75668;BME280;64266;48.798;44.756;2023-04-24T19:58:52;101283.22;;;12.97;85.51
75668;BME280;64266;48.798;44.756;2023-04-24T20:03:54;101262.44;;;13.06;83.74
75668;BME280;64266;48.798;44.756;2023-04-24T20:08:57;101285.56;;;13.30;83.77
75668;BME280;64266;48.798;44.756;2023-04-24T20:14:00;101277.72;;;13.35;81.98
75668;BME280;64266;48.798;44.756;2023-04-24T20:19:05;101179.53;;;12.84;82.29
75668;BME280;64266;48.798;44.756;2023-04-24T20:24:07;101163.78;;;12.83;81.32
75668;BME280;64266;48.798;44.756;2023-04-24T20:29:12;101241.03;;;13.37;80.57
75668;BME280;64266;48.798;44.756;2023-04-24T20:34:15;101208.63;;;13.22;80.00
75668;BME280;64266;48.798;44.756;2023-04-24T20:39:17;101189.09;;;13.28;81.14
75668;BME280;64266;48.798;44.756;2023-04-24T20:44:21;101208.00;;;13.38;80.70
75668;BME280;64266;48.798;44.756;2023-04-24T20:49:23;101206.66;;;13.47;79.38
75668;BME280;64266;48.798;44.756;2023-04-24T20:54:26;101183.91;;;13.33;80.56
75668;BME280;64266;48.798;44.756;2023-04-24T20:59:28;101228.41;;;13.63;80.41
75668;BME280;64266;48.798;44.756;2023-04-24T21:04:31;101211.31;;;13.52;80.50
75668;BME280;64266;48.798;44.756;2023-04-24T21:09:36;101227.06;;;13.72;80.21
75668;BME280;64266;48.798;44.756;2023-04-24T21:14:38;101225.78;;;13.74;79.01
75668;BME280;64266;48.798;44.756;2023-04-24T21:19:41;101218.72;;;13.80;76.98
75668;BME280;64266;48.798;44.756;2023-04-24T21:24:45;101190.97;;;13.69;77.99
75668;BME280;64266;48.798;44.756;2023-04-24T21:29:48;101167.56;;;13.60;76.56
75668;BME280;64266;48.798;44.756;2023-04-24T21:34:50;101223.06;;;13.92;78.35
75668;BME280;64266;48.798;44.756;2023-04-24T21:39:53;101124.03;;;13.36;78.07
75668;BME280;64266;48.798;44.756;2023-04-24T21:44:56;101155.34;;;13.40;78.45
75668;BME280;64266;48.798;44.756;2023-04-24T21:50:00;101168.03;;;13.56;80.04
75668;BME280;64266;48.798;44.756;2023-04-24T21:55:05;101124.66;;;13.20;80.21
75668;BME280;64266;48.798;44.756;2023-04-24T22:00:09;101160.41;;;13.42;80.74
75668;BME280;64266;48.798;44.756;2023-04-24T22:05:12;101135.59;;;13.30;80.97
75668;BME280;64266;48.798;44.756;2023-04-24T22:10:17;101120.22;;;13.32;81.45
75668;BME280;64266;48.798;44.756;2023-04-24T22:15:20;101139.72;;;13.44;81.12
75668;BME280;64266;48.798;44.756;2023-04-24T22:20:23;101117.03;;;13.23;81.10
75668;BME280;64266;48.798;44.756;2023-04-24T22:25:27;101109.56;;;13.32;81.63
75668;BME280;64266;48.798;44.756;2023-04-24T22:30:30;101093.44;;;13.27;81.04
75668;BME280;64266;48.798;44.756;2023-04-24T22:35:33;101075.47;;;13.22;81.17
75668;BME280;64266;48.798;44.756;2023-04-24T22:40:39;101075.88;;;13.37;80.77
75668;BME280;64266;48.798;44.756;2023-04-24T22:45:44;101080.47;;;13.30;80.69
75668;BME280;64266;48.798;44.756;2023-04-24T22:50:47;101025.09;;;13.21;79.70
75668;BME280;64266;48.798;44.756;2023-04-24T22:55:50;101053.31;;;13.51;78.46
75668;BME280;64266;48.798;44.756;2023-04-24T23:00:53;101030.72;;;13.54;78.12
75668;BME280;64266;48.798;44.756;2023-04-24T23:05:55;101012.06;;;13.54;76.62
75668;BME280;64266;48.798;44.756;2023-04-24T23:10:59;100993.66;;;13.64;77.52
75668;BME280;64266;48.798;44.756;2023-04-24T23:16:02;100992.47;;;13.60;77.83
75668;BME280;64266;48.798;44.756;2023-04-24T23:21:06;100977.78;;;13.57;78.59
75668;BME280;64266;48.798;44.756;2023-04-24T23:26:09;100935.25;;;13.28;78.41
75668;BME280;64266;48.798;44.756;2023-04-24T23:31:12;100961.53;;;13.47;79.20
75668;BME280;64266;48.798;44.756;2023-04-24T23:36:14;100927.38;;;13.33;77.91
75668;BME280;64266;48.798;44.756;2023-04-24T23:41:18;100955.75;;;13.50;78.19
75668;BME280;64266;48.798;44.756;2023-04-24T23:46:21;100915.13;;;13.32;79.58
75668;BME280;64266;48.798;44.756;2023-04-24T23:51:24;100897.16;;;13.27;78.68
75668;BME280;64266;48.798;44.756;2023-04-24T23:56:28;100821.41;;;12.88;79.25
